createdAt,value
2022-09-03T00:02:24.438Z,52.53
2022-09-03T00:05:18.412Z,52.24
2022-09-03T00:08:11.678Z,52.52
2022-09-03T00:11:00.772Z,52.48
2022-09-03T00:14:03.205Z,52.23
2022-09-03T00:16:55.092Z,52.27
2022-09-03T00:19:29.244Z,51.77
2022-09-03T00:22:19.565Z,51.49
2022-09-03T00:24:50.168Z,51.63
2022-09-03T00:27:20.601Z,51.76
2022-09-03T00:30:07.050Z,51.65
2022-09-03T00:32:37.698Z,51.46
2022-09-03T00:35:06.968Z,51.63
2022-09-03T00:37:38.013Z,51.75
2022-09-03T00:40:11.318Z,51.71
2022-09-03T00:43:21.257Z,51.96
2022-09-03T00:46:19.534Z,51.91
2022-09-03T00:49:05.631Z,51.84
2022-09-03T00:52:00.415Z,51.75
2022-09-03T00:54:48.955Z,51.76
2022-09-03T00:57:25.783Z,51.68
2022-09-03T01:00:10.140Z,51.13
2022-09-03T01:02:51.990Z,51.13
2022-09-03T01:05:25.966Z,51.23
2022-09-03T01:08:32.222Z,51.21
2022-09-03T01:11:21.067Z,51.03
2022-09-03T01:14:10.484Z,50.43
2022-09-03T01:16:46.261Z,50.38
2022-09-03T01:19:41.325Z,50.12
2022-09-03T01:22:24.440Z,50.13
2022-09-03T01:25:15.325Z,50.26
2022-09-03T01:27:54.365Z,50.68
2022-09-03T01:30:23.999Z,50.61
2022-09-03T01:33:03.363Z,51.35
2022-09-03T01:35:49.276Z,51.40
2022-09-03T01:38:44.673Z,51.76
2022-09-03T01:41:49.400Z,51.41
2022-09-03T01:44:39.437Z,52.05
2022-09-03T01:47:33.275Z,53.22
2022-09-03T01:50:11.371Z,52.99
2022-09-03T01:52:50.736Z,53.57
2022-09-03T01:55:34.121Z,53.30
2022-09-03T01:58:10.321Z,54.64
2022-09-03T02:00:40.222Z,53.61
2022-09-03T02:03:09.771Z,55.25
2022-09-03T02:05:37.527Z,54.09
2022-09-03T02:08:09.398Z,54.82
2022-09-03T02:10:54.165Z,55.39
2022-09-03T02:13:32.511Z,55.32
2022-09-03T02:16:07.704Z,56.21
2022-09-03T02:18:41.379Z,56.59
2022-09-03T02:21:10.516Z,55.89
2022-09-03T02:23:40.601Z,57.13
2022-09-03T02:26:09.615Z,58.46
2022-09-03T02:28:37.005Z,59.25
2022-09-03T02:31:04.991Z,58.90
2022-09-03T02:33:39.558Z,57.93
2022-09-03T02:36:10.615Z,57.39
2022-09-03T02:38:38.165Z,55.90
2022-09-03T02:41:05.595Z,56.10
2022-09-03T02:43:53.205Z,56.94
2022-09-03T02:46:28.043Z,55.17
2022-09-03T02:48:56.106Z,54.70
2022-09-03T02:51:23.525Z,56.15
2022-09-03T02:53:51.086Z,56.77
2022-09-03T02:56:18.633Z,57.80
2022-09-03T02:58:46.003Z,58.44
2022-09-03T03:01:21.828Z,60.27
2022-09-03T03:03:52.344Z,57.70
2022-09-03T03:06:20.831Z,55.70
2022-09-03T03:08:49.826Z,55.74
2022-09-03T03:11:18.512Z,55.58
2022-09-03T03:13:46.898Z,55.81
2022-09-03T03:16:15.421Z,57.25
2022-09-03T03:18:43.162Z,59.66
2022-09-03T03:21:12.543Z,61.43
2022-09-03T03:23:40.466Z,60.36
2022-09-03T03:26:14.730Z,58.15
2022-09-03T03:28:42.576Z,57.78
2022-09-03T03:31:21.212Z,58.46
2022-09-03T03:33:56.467Z,60.04
2022-09-03T03:36:26.331Z,59.03
2022-09-03T03:38:58.180Z,59.64
2022-09-03T03:41:33.655Z,60.34
2022-09-03T03:44:03.361Z,58.77
2022-09-03T03:46:36.509Z,62.44
2022-09-03T03:49:06.367Z,62.33
2022-09-03T03:51:34.788Z,62.32
2022-09-03T03:54:05.189Z,59.98
2022-09-03T03:56:33.725Z,59.79
2022-09-03T03:59:01.234Z,58.86
2022-09-03T04:01:29.844Z,58.63
2022-09-03T04:03:58.694Z,57.90
2022-09-03T04:06:26.590Z,58.61
2022-09-03T04:08:54.333Z,59.86
2022-09-03T04:11:23.220Z,60.97
2022-09-03T04:13:51.511Z,62.23
2022-09-03T04:16:21.372Z,63.58
2022-09-03T04:18:50.393Z,62.75
2022-09-03T04:21:20.899Z,62.67
2022-09-03T04:23:49.508Z,61.38
2022-09-03T04:26:31.293Z,62.18
2022-09-03T04:29:01.151Z,61.77
2022-09-03T04:31:29.034Z,61.47
2022-09-03T04:33:56.558Z,61.10
2022-09-03T04:36:26.350Z,60.68
2022-09-03T04:38:55.017Z,60.67
2022-09-03T04:41:27.477Z,60.40
2022-09-03T04:43:56.895Z,61.38
2022-09-03T04:46:26.767Z,61.00
2022-09-03T04:48:55.635Z,60.93
2022-09-03T04:51:28.037Z,60.39
2022-09-03T04:53:58.225Z,60.36
2022-09-03T04:56:30.867Z,60.44
2022-09-03T04:59:01.393Z,60.18
2022-09-03T05:01:30.831Z,59.52
2022-09-03T05:03:58.804Z,60.54
2022-09-03T05:06:27.344Z,61.17
2022-09-03T05:08:55.645Z,61.55
2022-09-03T05:11:24.063Z,61.06
2022-09-03T05:13:53.900Z,60.44
2022-09-03T05:16:22.013Z,60.43
2022-09-03T05:18:51.908Z,60.35
2022-09-03T05:21:20.105Z,60.88
2022-09-03T05:23:50.253Z,60.47
2022-09-03T05:26:22.690Z,60.42
2022-09-03T05:28:57.690Z,60.11
2022-09-03T05:31:27.933Z,60.81
2022-09-03T05:33:58.981Z,61.28
2022-09-03T05:36:29.022Z,61.78
2022-09-03T05:38:56.519Z,61.31
2022-09-03T05:41:26.845Z,61.63
2022-09-03T05:44:00.999Z,61.65
2022-09-03T05:46:32.039Z,61.28
2022-09-03T05:49:01.986Z,61.55
2022-09-03T05:51:30.031Z,61.66
2022-09-03T05:53:58.525Z,61.15
2022-09-03T05:56:27.824Z,60.50
2022-09-03T05:58:58.625Z,59.73
2022-09-03T06:01:31.587Z,57.64
2022-09-03T06:04:01.410Z,54.09
2022-09-03T06:06:30.238Z,51.00
2022-09-03T06:08:59.371Z,50.79
2022-09-03T06:11:29.413Z,52.93
2022-09-03T06:13:57.568Z,53.27
2022-09-03T06:16:31.571Z,56.04
2022-09-03T06:19:00.570Z,57.50
2022-09-03T06:21:28.241Z,57.26
2022-09-03T06:23:59.772Z,56.73
2022-09-03T06:26:30.895Z,55.83
2022-09-03T06:28:59.853Z,56.28
2022-09-03T06:31:28.089Z,56.89
2022-09-03T06:33:58.540Z,57.90
2022-09-03T06:36:28.792Z,59.47
2022-09-03T06:38:57.054Z,59.77
2022-09-03T06:41:31.722Z,60.18
2022-09-03T06:44:04.031Z,61.10
2022-09-03T06:46:33.132Z,60.68
2022-09-03T06:49:00.695Z,59.98
2022-09-03T06:51:29.823Z,60.54
2022-09-03T06:54:01.934Z,60.78
2022-09-03T06:56:29.320Z,60.37
2022-09-03T06:59:03.705Z,60.03
2022-09-03T07:01:32.423Z,60.38
2022-09-03T07:04:02.284Z,61.26
2022-09-03T07:06:38.541Z,60.74
2022-09-03T07:09:10.257Z,59.89
2022-09-03T07:11:39.114Z,61.04
2022-09-03T07:14:06.533Z,61.34
2022-09-03T07:16:38.178Z,60.66
2022-09-03T07:19:06.472Z,60.47
2022-09-03T07:21:36.835Z,61.06
2022-09-03T07:24:05.628Z,60.42
2022-09-03T07:26:44.560Z,60.61
2022-09-03T07:29:13.082Z,60.85
2022-09-03T07:31:42.176Z,60.18
2022-09-03T07:34:12.584Z,60.33
2022-09-03T07:36:42.825Z,60.18
2022-09-03T07:39:11.753Z,60.70
2022-09-03T07:41:43.437Z,61.57
2022-09-03T07:44:15.284Z,61.76
2022-09-03T07:46:45.397Z,62.02
2022-09-03T07:49:12.991Z,61.72
2022-09-03T07:51:40.581Z,62.08
2022-09-03T07:54:10.886Z,62.28
2022-09-03T07:56:39.681Z,61.49
2022-09-03T07:59:07.600Z,60.82
2022-09-03T08:01:35.728Z,59.93
2022-09-03T08:04:04.337Z,57.54
2022-09-03T08:06:32.895Z,56.37
2022-09-03T08:09:05.675Z,55.27
2022-09-03T08:11:42.385Z,54.53
2022-09-03T08:14:11.762Z,55.20
2022-09-03T08:16:42.312Z,55.30
2022-09-03T08:19:11.355Z,55.71
2022-09-03T08:21:42.001Z,55.66
2022-09-03T08:24:11.013Z,54.02
2022-09-03T08:26:41.712Z,55.02
2022-09-03T08:29:09.593Z,54.19
2022-09-03T08:31:37.929Z,54.98
2022-09-03T08:34:07.504Z,55.96
2022-09-03T08:36:40.238Z,56.50
2022-09-03T08:39:11.913Z,54.48
2022-09-03T08:42:03.552Z,52.89
2022-09-03T08:44:48.957Z,48.67
2022-09-03T08:47:41.945Z,51.45
2022-09-03T08:50:17.364Z,49.66
2022-09-03T08:52:52.636Z,50.06
2022-09-03T08:55:50.584Z,48.47
2022-09-03T08:58:28.560Z,46.05
2022-09-03T09:01:23.036Z,46.26
2022-09-03T09:04:05.701Z,48.70
2022-09-03T09:06:39.835Z,47.06
2022-09-03T09:09:44.431Z,41.29
2022-09-03T09:12:20.675Z,45.52
2022-09-03T09:14:56.924Z,42.70
2022-09-03T09:17:27.913Z,43.32
2022-09-03T09:20:34.912Z,43.56
2022-09-03T09:23:06.646Z,42.80
2022-09-03T09:25:39.656Z,42.88
2022-09-03T09:28:24.840Z,46.02
2022-09-03T09:30:56.914Z,43.20
2022-09-03T09:33:25.460Z,39.12
2022-09-03T09:35:52.558Z,38.51
2022-09-03T09:38:32.889Z,38.70
2022-09-03T09:41:15.476Z,38.07
2022-09-03T09:43:43.679Z,38.38
2022-09-03T09:46:20.327Z,39.59
2022-09-03T09:48:57.821Z,40.01
2022-09-03T09:51:31.164Z,40.35
2022-09-03T09:54:13.653Z,38.67
2022-09-03T09:56:44.570Z,37.32
2022-09-03T09:59:14.856Z,34.36
2022-09-03T10:01:47.809Z,33.80
2022-09-03T10:04:33.160Z,34.76
2022-09-03T10:07:29.524Z,36.13
2022-09-03T10:10:19.925Z,37.12
2022-09-03T10:13:01.670Z,39.10
2022-09-03T10:15:47.842Z,37.92
2022-09-03T10:19:10.743Z,33.27
2022-09-03T10:22:03.774Z,29.25
2022-09-03T10:24:53.130Z,29.32
2022-09-03T10:27:20.205Z,30.97
2022-09-03T10:29:47.252Z,30.74
2022-09-03T10:32:39.905Z,33.19
2022-09-03T10:35:32.470Z,31.52
2022-09-03T10:38:30.874Z,32.06
2022-09-03T10:41:23.490Z,38.47
2022-09-03T10:44:12.218Z,38.60
2022-09-03T10:47:09.717Z,38.92
2022-09-03T10:50:10.388Z,37.60
2022-09-03T10:53:18.318Z,36.31
2022-09-03T10:55:54.133Z,35.96
2022-09-03T10:59:08.099Z,35.79
2022-09-03T11:01:58.997Z,37.30
2022-09-03T11:04:51.905Z,39.27
2022-09-03T11:07:24.101Z,44.86
2022-09-03T11:10:15.518Z,45.53
2022-09-03T11:12:49.247Z,41.82
2022-09-03T11:15:34.654Z,39.66
2022-09-03T11:18:20.670Z,39.58
2022-09-03T11:20:51.309Z,41.08
2022-09-03T11:23:19.612Z,40.05
2022-09-03T11:25:51.606Z,40.38
2022-09-03T11:29:04.169Z,38.70
2022-09-03T11:32:15.829Z,39.09
2022-09-03T11:34:51.146Z,39.39
2022-09-03T11:37:31.097Z,39.53
2022-09-03T11:40:12.095Z,38.74
2022-09-03T11:42:44.470Z,40.31
2022-09-03T11:45:30.241Z,38.91
2022-09-03T11:47:59.239Z,39.23
2022-09-03T11:50:34.155Z,40.85
2022-09-03T11:53:16.350Z,43.30
2022-09-03T11:55:56.232Z,42.91
2022-09-03T11:58:34.706Z,44.58
2022-09-03T12:01:05.647Z,43.59
2022-09-03T12:04:03.323Z,43.21
2022-09-03T12:07:20.789Z,43.72
2022-09-03T12:09:56.837Z,43.70
2022-09-03T12:12:59.195Z,44.71
2022-09-03T12:15:53.784Z,44.57
2022-09-03T12:18:31.649Z,46.15
2022-09-03T12:21:00.107Z,46.52
2022-09-03T12:23:49.633Z,47.79
2022-09-03T12:26:27.375Z,47.15
2022-09-03T12:28:57.701Z,48.40
2022-09-03T12:31:32.031Z,48.60
2022-09-03T12:34:10.764Z,49.38
2022-09-03T12:36:41.438Z,48.79
2022-09-03T12:39:15.046Z,50.24
2022-09-03T12:42:24.245Z,51.21
2022-09-03T12:44:51.366Z,52.35
2022-09-03T12:47:38.062Z,52.69
2022-09-03T12:50:21.312Z,53.60
2022-09-03T12:53:00.122Z,54.37
2022-09-03T12:55:37.030Z,54.60
2022-09-03T12:58:13.623Z,54.60
2022-09-03T13:01:07.085Z,54.92
2022-09-03T13:04:16.972Z,55.72
2022-09-03T13:06:57.025Z,57.23
2022-09-03T13:09:26.478Z,57.88
2022-09-03T13:11:55.468Z,63.45
2022-09-03T13:14:23.000Z,67.67
2022-09-03T13:17:16.568Z,69.77
2022-09-03T13:19:52.189Z,71.85
2022-09-03T13:22:56.057Z,72.83
2022-09-03T13:25:46.281Z,77.71
2022-09-03T13:28:27.534Z,80.69
2022-09-03T13:31:25.792Z,86.00
2022-09-03T13:34:04.744Z,90.31
2022-09-03T13:36:54.420Z,85.41
2022-09-03T13:40:00.035Z,86.66
2022-09-03T13:42:39.544Z,89.36
2022-09-03T13:45:23.892Z,89.49
2022-09-03T13:48:38.079Z,93.24
2022-09-03T13:51:32.367Z,90.47
2022-09-03T13:54:42.481Z,91.69
2022-09-03T13:57:58.350Z,92.12
2022-09-03T14:00:54.265Z,90.80
2022-09-03T14:03:35.538Z,92.21
2022-09-03T14:06:25.521Z,92.18
2022-09-03T14:09:18.942Z,89.17
2022-09-03T14:12:24.567Z,87.68
2022-09-03T14:15:01.979Z,83.82
2022-09-03T14:18:09.524Z,84.90
2022-09-03T14:21:02.099Z,84.46
2022-09-03T14:24:01.773Z,84.22
2022-09-03T14:26:39.581Z,84.54
2022-09-03T14:29:12.992Z,85.29
2022-09-03T14:32:15.662Z,84.30
2022-09-03T14:35:06.932Z,81.60
2022-09-03T14:38:02.850Z,80.36
2022-09-03T14:41:11.462Z,81.95
2022-09-03T14:44:06.325Z,82.02
2022-09-03T14:46:52.306Z,82.55
2022-09-03T14:49:53.963Z,83.46
2022-09-03T14:52:35.889Z,83.27
2022-09-03T14:55:24.653Z,82.98
2022-09-03T14:58:18.152Z,82.75
2022-09-03T15:01:16.124Z,82.82
2022-09-03T15:04:12.925Z,83.38
2022-09-03T15:06:51.783Z,84.00
2022-09-03T15:10:13.379Z,85.05
2022-09-03T15:12:50.212Z,84.88
2022-09-03T15:15:23.186Z,84.34
2022-09-03T15:18:32.597Z,84.20
2022-09-03T15:21:33.218Z,85.57
2022-09-03T15:24:11.665Z,87.38
2022-09-03T15:26:51.367Z,89.60
2022-09-03T15:29:21.549Z,90.76
2022-09-03T15:32:33.226Z,92.23
2022-09-03T15:35:25.331Z,92.04
2022-09-03T15:38:13.891Z,91.32
2022-09-03T15:40:55.870Z,92.75
2022-09-03T15:43:31.529Z,91.60
2022-09-03T15:46:34.168Z,88.97
2022-09-03T15:49:19.358Z,90.31
2022-09-03T15:52:11.540Z,92.84
2022-09-03T15:54:57.084Z,95.66
2022-09-03T15:57:42.306Z,98.33
2022-09-03T16:00:21.635Z,93.26
2022-09-03T16:03:07.611Z,93.39
2022-09-03T16:05:47.011Z,95.43
2022-09-03T16:08:42.188Z,93.68
2022-09-03T16:11:17.866Z,92.80
2022-09-03T16:14:24.965Z,93.85
2022-09-03T16:17:21.501Z,94.67
2022-09-03T16:20:07.953Z,92.08
2022-09-03T16:23:02.833Z,93.29
2022-09-03T16:25:35.816Z,92.78
2022-09-03T16:28:21.353Z,91.93
2022-09-03T16:31:04.039Z,92.14
2022-09-03T16:34:03.657Z,92.39
2022-09-03T16:36:43.928Z,91.84
2022-09-03T16:39:21.553Z,90.41
2022-09-03T16:42:06.499Z,89.96
2022-09-03T16:45:00.006Z,89.89
2022-09-03T16:47:39.459Z,89.67
2022-09-03T16:50:30.632Z,88.84
2022-09-03T16:53:32.223Z,89.59
2022-09-03T16:56:55.596Z,90.67
2022-09-03T16:59:31.416Z,90.44
2022-09-03T17:02:42.066Z,89.55
2022-09-03T17:05:24.297Z,90.75
2022-09-03T17:08:18.434Z,91.43
2022-09-03T17:11:18.824Z,90.26
2022-09-03T17:14:07.729Z,90.57
2022-09-03T17:17:17.484Z,90.24
2022-09-03T17:20:22.183Z,90.14
2022-09-03T17:22:55.065Z,90.38
2022-09-03T17:25:37.142Z,90.28
2022-09-03T17:28:21.419Z,90.75
2022-09-03T17:31:15.947Z,90.30
2022-09-03T17:34:13.583Z,91.41
2022-09-03T17:37:21.220Z,90.56
2022-09-03T17:40:01.840Z,91.39
2022-09-03T17:43:34.701Z,91.11
2022-09-03T17:46:40.944Z,92.15
2022-09-03T17:49:08.853Z,92.46
2022-09-03T17:51:48.074Z,92.38
2022-09-03T17:54:23.748Z,92.70
2022-09-03T17:57:10.500Z,93.10
2022-09-03T17:59:46.105Z,93.95
2022-09-03T18:02:44.212Z,93.67
2022-09-03T18:05:31.706Z,94.14
2022-09-03T18:09:05.081Z,94.69
2022-09-03T18:11:39.905Z,94.60
2022-09-03T18:14:29.158Z,94.60
2022-09-03T18:17:07.172Z,94.80
2022-09-03T18:20:04.813Z,94.99
2022-09-03T18:23:13.315Z,95.64
2022-09-03T18:26:02.934Z,94.88
2022-09-03T18:29:05.890Z,95.50
2022-09-03T18:31:51.637Z,95.61
2022-09-03T18:34:47.797Z,93.45
2022-09-03T18:37:46.367Z,93.31
2022-09-03T18:40:45.296Z,93.50
2022-09-03T18:43:56.192Z,94.09
2022-09-03T18:50:45.799Z,96.46
2022-09-03T18:54:18.263Z,96.11
2022-09-03T18:57:08.504Z,93.23
2022-09-03T19:00:28.951Z,93.40
2022-09-03T19:03:47.713Z,94.55
2022-09-03T19:07:01.380Z,97.24
2022-09-03T19:10:14.230Z,96.17
2022-09-03T19:13:30.645Z,94.50
2022-09-03T19:16:33.299Z,96.32
2022-09-03T19:19:57.591Z,97.63
2022-09-03T19:22:54.260Z,98.48
2022-09-03T19:25:42.468Z,100.00
2022-09-03T19:28:44.184Z,100.00
2022-09-03T19:31:29.504Z,100.00
2022-09-03T19:34:33.244Z,100.00
2022-09-03T19:37:40.738Z,100.00
2022-09-03T19:40:51.002Z,100.00
2022-09-03T19:44:07.549Z,100.00
2022-09-03T19:47:10.359Z,100.00
2022-09-03T19:49:55.675Z,100.00
2022-09-03T19:53:07.276Z,100.00
2022-09-03T19:55:58.022Z,100.00
2022-09-03T19:58:47.109Z,100.00
2022-09-03T20:01:33.118Z,100.00
2022-09-03T20:04:34.034Z,100.00
2022-09-03T20:07:24.240Z,100.00
2022-09-03T20:10:12.748Z,100.00
2022-09-03T20:12:47.695Z,100.00
2022-09-03T20:15:14.977Z,100.00
2022-09-03T20:18:06.811Z,100.00
2022-09-03T20:20:51.607Z,100.00
2022-09-03T20:23:52.495Z,100.00
2022-09-03T20:26:31.589Z,100.00
2022-09-03T20:29:22.492Z,100.00
2022-09-03T20:32:24.464Z,100.00
2022-09-03T20:34:59.861Z,100.00
2022-09-03T20:37:45.744Z,100.00
2022-09-03T20:41:03.525Z,100.00
2022-09-03T20:43:54.656Z,100.00
2022-09-03T20:47:15.973Z,100.00
2022-09-03T20:50:16.219Z,100.00
2022-09-03T20:53:01.038Z,100.00
2022-09-03T20:55:44.884Z,100.00
2022-09-03T20:58:42.141Z,100.00
2022-09-03T21:01:17.527Z,100.00
2022-09-03T21:04:10.671Z,100.00
2022-09-03T21:07:02.416Z,100.00
2022-09-03T21:09:57.934Z,100.00
2022-09-03T21:12:57.099Z,100.00
2022-09-03T21:15:36.547Z,100.00
2022-09-03T21:18:14.924Z,100.00
2022-09-03T21:21:12.336Z,100.00
2022-09-03T21:23:46.305Z,100.00
2022-09-03T21:26:24.800Z,100.00
2022-09-03T21:29:05.797Z,100.00
2022-09-03T21:32:04.391Z,100.00
2022-09-03T21:34:41.100Z,100.00
2022-09-03T21:37:12.904Z,100.00
2022-09-03T21:39:55.722Z,100.00
2022-09-03T21:42:49.776Z,100.00
2022-09-03T21:45:39.403Z,100.00
2022-09-03T21:48:17.852Z,100.00
2022-09-03T21:51:18.749Z,100.00
2022-09-03T21:54:06.858Z,100.00
2022-09-03T21:57:27.361Z,100.00
2022-09-03T22:00:32.318Z,100.00
2022-09-03T22:03:00.629Z,100.00
2022-09-03T22:06:11.252Z,100.00
2022-09-03T22:09:34.840Z,100.00
2022-09-03T22:12:20.678Z,100.00
2022-09-03T22:14:52.093Z,100.00
2022-09-03T22:17:46.889Z,100.00
2022-09-03T22:20:15.897Z,100.00
2022-09-03T22:22:56.642Z,100.00
2022-09-03T22:25:44.544Z,100.00
2022-09-03T22:28:28.664Z,100.00
2022-09-03T22:31:21.260Z,100.00
2022-09-03T22:34:03.985Z,100.00
2022-09-03T22:36:53.021Z,100.00
2022-09-03T22:39:46.453Z,100.00
2022-09-03T22:42:22.529Z,100.00
2022-09-03T22:45:36.834Z,100.00
2022-09-03T22:48:37.660Z,100.00
2022-09-03T22:51:05.279Z,100.00
2022-09-03T22:54:34.503Z,100.00
2022-09-03T22:57:03.198Z,100.00
2022-09-03T22:59:45.298Z,100.00
2022-09-03T23:02:22.437Z,100.00
2022-09-03T23:05:12.299Z,100.00
2022-09-03T23:07:59.353Z,100.00
2022-09-03T23:10:53.502Z,100.00
2022-09-03T23:13:26.352Z,100.00
2022-09-03T23:16:44.083Z,100.00
2022-09-03T23:19:33.507Z,100.00
2022-09-03T23:22:22.713Z,100.00
2022-09-03T23:25:05.551Z,100.00
2022-09-03T23:27:42.400Z,100.00
2022-09-03T23:30:09.728Z,100.00
2022-09-03T23:32:36.768Z,100.00
2022-09-03T23:35:16.166Z,100.00
2022-09-03T23:38:02.209Z,100.00
2022-09-03T23:40:49.970Z,100.00
2022-09-03T23:44:00.854Z,100.00
2022-09-03T23:46:44.921Z,100.00
2022-09-03T23:49:39.505Z,100.00
2022-09-03T23:52:53.916Z,100.00
2022-09-03T23:55:48.763Z,100.00
2022-09-03T23:58:51.713Z,100.00
